createdAt,value
2023-01-04T00:00:33.133Z,1018.04
2023-01-04T00:01:33.048Z,1018.01
2023-01-04T00:02:33.227Z,1018.01
2023-01-04T00:03:33.328Z,1017.95
2023-01-04T00:04:33.135Z,1017.97
2023-01-04T00:05:33.149Z,1018.00
2023-01-04T00:06:33.166Z,1017.94
2023-01-04T00:07:33.193Z,1017.87
2023-01-04T00:08:33.223Z,1017.89
2023-01-04T00:09:33.240Z,1017.84
2023-01-04T00:10:33.263Z,1017.79
2023-01-04T00:11:33.289Z,1017.77
2023-01-04T00:12:33.311Z,1017.77
2023-01-04T00:13:33.339Z,1017.74
2023-01-04T00:14:33.362Z,1017.71
2023-01-04T00:15:33.421Z,1017.67
2023-01-04T00:16:33.517Z,1017.67
2023-01-04T00:17:33.440Z,1017.58
2023-01-04T00:18:33.458Z,1017.59
2023-01-04T00:19:33.479Z,1017.65
2023-01-04T00:20:33.507Z,1017.62
2023-01-04T00:21:33.533Z,1017.50
2023-01-04T00:22:33.553Z,1017.59
2023-01-04T00:23:33.579Z,1017.50
2023-01-04T00:24:33.603Z,1017.55
2023-01-04T00:25:33.636Z,1017.56
2023-01-04T00:26:33.658Z,1017.52
2023-01-04T00:27:33.680Z,1017.55
2023-01-04T00:28:33.699Z,1017.59
2023-01-04T00:29:33.729Z,1017.55
2023-01-04T00:30:33.753Z,1017.52
2023-01-04T00:31:33.935Z,1017.51
2023-01-04T00:32:33.813Z,1017.51
2023-01-04T00:33:33.827Z,1017.50
2023-01-04T00:34:33.847Z,1017.48
2023-01-04T00:35:45.896Z,1017.49
2023-01-04T00:36:33.900Z,1017.48
2023-01-04T00:37:33.922Z,1017.48
2023-01-04T00:38:33.954Z,1017.31
2023-01-04T00:39:33.968Z,1017.28
2023-01-04T00:40:34.010Z,1017.30
2023-01-04T00:41:57.372Z,1017.25
2023-01-04T00:42:34.045Z,1017.27
2023-01-04T00:43:34.067Z,1017.15
2023-01-04T00:44:34.105Z,1017.15
2023-01-04T00:45:34.116Z,1017.17
2023-01-04T00:46:34.235Z,1017.14
2023-01-04T00:47:34.207Z,1017.15
2023-01-04T00:48:40.127Z,1017.19
2023-01-04T00:49:34.213Z,1017.18
2023-01-04T00:50:34.238Z,1017.19
2023-01-04T00:51:34.261Z,1017.15
2023-01-04T00:52:34.284Z,1017.07
2023-01-04T00:53:34.311Z,1017.09
2023-01-04T00:54:34.335Z,1017.01
2023-01-04T00:55:34.378Z,1017.05
2023-01-04T00:56:34.382Z,1017.01
2023-01-04T00:57:34.561Z,1016.92
2023-01-04T00:58:34.433Z,1016.95
2023-01-04T00:59:34.463Z,1016.93
2023-01-04T01:00:35.101Z,1016.91
2023-01-04T01:01:34.645Z,1016.85
2023-01-04T01:02:34.736Z,1016.85
2023-01-04T01:03:38.483Z,1016.78
2023-01-04T01:04:34.599Z,1016.82
2023-01-04T01:05:34.606Z,1016.84
2023-01-04T01:06:34.631Z,1016.78
2023-01-04T01:07:34.656Z,1016.82
2023-01-04T01:08:34.706Z,1016.83
2023-01-04T01:09:34.704Z,1016.84
2023-01-04T01:10:34.732Z,1016.80
2023-01-04T01:11:34.755Z,1016.71
2023-01-04T01:12:34.776Z,1016.74
2023-01-04T01:13:34.805Z,1016.76
2023-01-04T01:14:34.826Z,1016.73
2023-01-04T01:15:34.896Z,1016.72
2023-01-04T01:17:34.901Z,1016.64
2023-01-04T01:18:34.926Z,1016.61
2023-01-04T01:19:34.948Z,1016.62
2023-01-04T01:20:34.993Z,1016.67
2023-01-04T01:21:35.000Z,1016.64
2023-01-04T01:22:35.025Z,1016.66
2023-01-04T01:23:35.061Z,1016.69
2023-01-04T01:24:35.076Z,1016.66
2023-01-04T01:25:35.102Z,1016.56
2023-01-04T01:26:35.139Z,1016.62
2023-01-04T01:27:35.147Z,1016.60
2023-01-04T01:28:35.171Z,1016.55
2023-01-04T01:29:35.197Z,1016.56
2023-01-04T01:30:35.219Z,1016.51
2023-01-04T01:31:35.385Z,1016.53
2023-01-04T01:32:35.268Z,1016.46
2023-01-04T01:33:35.295Z,1016.52
2023-01-04T01:34:35.319Z,1016.49
2023-01-04T01:35:35.343Z,1016.47
2023-01-04T01:36:35.393Z,1016.46
2023-01-04T01:37:35.392Z,1016.42
2023-01-04T01:38:35.414Z,1016.47
2023-01-04T01:39:35.461Z,1016.44
2023-01-04T01:40:35.466Z,1016.36
2023-01-04T01:41:35.590Z,1016.36
2023-01-04T01:42:35.571Z,1016.47
2023-01-04T01:43:35.564Z,1016.49
2023-01-04T01:44:35.560Z,1016.46
2023-01-04T01:45:35.586Z,1016.47
2023-01-04T01:46:35.731Z,1016.51
2023-01-04T01:47:35.637Z,1016.45
2023-01-04T01:48:35.674Z,1016.42
2023-01-04T01:49:35.699Z,1016.41
2023-01-04T01:50:35.708Z,1016.42
2023-01-04T01:51:35.762Z,1016.36
2023-01-04T01:52:35.824Z,1016.37
2023-01-04T01:53:35.781Z,1016.37
2023-01-04T01:54:35.801Z,1016.34
2023-01-04T01:55:35.840Z,1016.35
2023-01-04T01:56:35.856Z,1016.31
2023-01-04T01:57:35.874Z,1016.30
2023-01-04T01:58:35.947Z,1016.29
2023-01-04T01:59:35.937Z,1016.29
2023-01-04T02:00:35.955Z,1016.30
2023-01-04T02:01:36.103Z,1016.29
2023-01-04T02:02:36.291Z,1016.35
2023-01-04T02:03:36.128Z,1016.29
2023-01-04T02:04:36.049Z,1016.38
2023-01-04T02:05:36.069Z,1016.36
2023-01-04T02:06:36.902Z,1016.28
2023-01-04T02:07:36.118Z,1016.28
2023-01-04T02:08:36.158Z,1016.29
2023-01-04T02:09:36.164Z,1016.28
2023-01-04T02:10:36.198Z,1016.27
2023-01-04T02:11:36.212Z,1016.26
2023-01-04T02:12:36.241Z,1016.20
2023-01-04T02:13:36.263Z,1016.20
2023-01-04T02:14:36.290Z,1016.23
2023-01-04T02:15:36.362Z,1016.22
2023-01-04T02:16:36.359Z,1016.18
2023-01-04T02:17:36.380Z,1016.15
2023-01-04T02:18:36.390Z,1016.23
2023-01-04T02:19:36.404Z,1016.12
2023-01-04T02:20:36.433Z,1016.05
2023-01-04T02:21:36.454Z,1016.15
2023-01-04T02:22:36.479Z,1016.09
2023-01-04T02:23:36.503Z,1016.06
2023-01-04T02:24:36.545Z,1016.06
2023-01-04T02:25:36.546Z,1016.03
2023-01-04T02:26:36.573Z,1016.02
2023-01-04T02:27:36.616Z,1015.98
2023-01-04T02:28:36.620Z,1015.94
2023-01-04T02:29:36.660Z,1015.92
2023-01-04T02:30:36.673Z,1015.90
2023-01-04T02:31:36.747Z,1015.91
2023-01-04T02:32:36.720Z,1015.93
2023-01-04T02:33:36.738Z,1015.84
2023-01-04T02:34:36.770Z,1015.87
2023-01-04T02:35:36.787Z,1015.86
2023-01-04T02:36:36.862Z,1015.82
2023-01-04T02:37:36.836Z,1015.79
2023-01-04T02:38:36.868Z,1015.78
2023-01-04T02:39:36.891Z,1015.80
2023-01-04T02:40:36.925Z,1015.76
2023-01-04T02:41:36.936Z,1015.78
2023-01-04T02:42:36.957Z,1015.76
2023-01-04T02:43:36.994Z,1015.74
2023-01-04T02:45:37.029Z,1015.65
2023-01-04T02:46:37.136Z,1015.68
2023-01-04T02:47:37.075Z,1015.63
2023-01-04T02:48:37.098Z,1015.62
2023-01-04T02:49:37.124Z,1015.57
2023-01-04T02:50:37.148Z,1015.57
2023-01-04T02:51:37.184Z,1015.54
2023-01-04T02:52:37.202Z,1015.55
2023-01-04T02:53:37.220Z,1015.48
2023-01-04T02:54:37.242Z,1015.47
2023-01-04T02:55:37.270Z,1015.48
2023-01-04T02:56:37.344Z,1015.44
2023-01-04T02:57:37.325Z,1015.41
2023-01-04T02:58:37.339Z,1015.45
2023-01-04T02:59:37.362Z,1015.41
2023-01-04T03:00:37.387Z,1015.45
2023-01-04T03:01:37.505Z,1015.41
2023-01-04T03:02:37.614Z,1015.40
2023-01-04T03:03:37.478Z,1015.43
2023-01-04T03:04:37.486Z,1015.40
2023-01-04T03:05:37.509Z,1015.44
2023-01-04T03:06:37.531Z,1015.40
2023-01-04T03:07:37.556Z,1015.38
2023-01-04T03:08:37.590Z,1015.38
2023-01-04T03:09:37.605Z,1015.41
2023-01-04T03:10:37.644Z,1015.36
2023-01-04T03:11:37.662Z,1015.36
2023-01-04T03:12:37.696Z,1015.45
2023-01-04T03:13:37.727Z,1015.37
2023-01-04T03:14:37.727Z,1015.31
2023-01-04T03:15:37.763Z,1015.33
2023-01-04T03:16:37.835Z,1015.34
2023-01-04T03:17:37.799Z,1015.36
2023-01-04T03:18:37.824Z,1015.28
2023-01-04T03:19:37.847Z,1015.34
2023-01-04T03:20:37.883Z,1015.31
2023-01-04T03:21:37.900Z,1015.36
2023-01-04T03:22:37.921Z,1015.35
2023-01-04T03:23:37.951Z,1015.30
2023-01-04T03:24:37.973Z,1015.24
2023-01-04T03:25:37.992Z,1015.26
2023-01-04T03:26:38.023Z,1015.32
2023-01-04T03:27:38.042Z,1015.18
2023-01-04T03:28:38.086Z,1015.19
2023-01-04T03:29:38.091Z,1015.19
2023-01-04T03:30:38.119Z,1015.15
2023-01-04T03:31:38.228Z,1015.22
2023-01-04T03:32:38.173Z,1015.18
2023-01-04T03:33:38.190Z,1015.22
2023-01-04T03:34:38.219Z,1015.18
2023-01-04T03:35:38.236Z,1015.06
2023-01-04T03:36:38.272Z,1015.11
2023-01-04T03:37:38.287Z,1015.04
2023-01-04T03:38:38.309Z,1015.05
2023-01-04T03:39:38.335Z,1015.03
2023-01-04T03:40:38.363Z,1015.02
2023-01-04T03:41:38.384Z,1014.96
2023-01-04T03:42:38.411Z,1014.92
2023-01-04T03:43:38.456Z,1014.90
2023-01-04T03:44:38.531Z,1014.84
2023-01-04T03:45:38.481Z,1014.84
2023-01-04T03:46:38.580Z,1014.84
2023-01-04T03:47:38.530Z,1014.85
2023-01-04T03:48:38.559Z,1014.80
2023-01-04T03:49:38.579Z,1014.81
2023-01-04T03:50:38.603Z,1014.81
2023-01-04T03:51:38.630Z,1014.75
2023-01-04T03:52:38.658Z,1014.81
2023-01-04T03:53:38.693Z,1014.85
2023-01-04T03:54:38.712Z,1014.87
2023-01-04T03:55:38.725Z,1014.81
2023-01-04T03:56:38.749Z,1014.80
2023-01-04T03:57:38.775Z,1014.75
2023-01-04T03:58:38.799Z,1014.74
2023-01-04T03:59:38.824Z,1014.60
2023-01-04T04:00:38.896Z,1014.75
2023-01-04T04:01:38.947Z,1014.63
2023-01-04T04:02:38.903Z,1014.73
2023-01-04T04:03:38.972Z,1014.72
2023-01-04T04:04:38.948Z,1014.67
2023-01-04T04:05:38.972Z,1014.68
2023-01-04T04:06:38.999Z,1014.70
2023-01-04T04:07:39.021Z,1014.78
2023-01-04T04:08:39.045Z,1014.77
2023-01-04T04:09:39.072Z,1014.72
2023-01-04T04:10:39.115Z,1014.69
2023-01-04T04:11:39.119Z,1014.70
2023-01-04T04:12:39.155Z,1014.63
2023-01-04T04:13:39.169Z,1014.55
2023-01-04T04:14:39.212Z,1014.66
2023-01-04T04:15:39.220Z,1014.56
2023-01-04T04:16:39.325Z,1014.55
2023-01-04T04:17:39.268Z,1014.55
2023-01-04T04:18:39.292Z,1014.58
2023-01-04T04:19:39.324Z,1014.55
2023-01-04T04:20:39.358Z,1014.46
2023-01-04T04:21:39.366Z,1014.52
2023-01-04T04:22:39.399Z,1014.51
2023-01-04T04:23:39.416Z,1014.47
2023-01-04T04:24:39.445Z,1014.46
2023-01-04T04:25:39.466Z,1014.43
2023-01-04T04:26:39.491Z,1014.43
2023-01-04T04:27:39.525Z,1014.46
2023-01-04T04:28:39.617Z,1014.39
2023-01-04T04:29:39.575Z,1014.43
2023-01-04T04:30:39.598Z,1014.39
2023-01-04T04:31:39.750Z,1014.33
2023-01-04T04:32:39.658Z,1014.39
2023-01-04T04:33:39.666Z,1014.35
2023-01-04T04:34:39.688Z,1014.39
2023-01-04T04:35:39.713Z,1014.44
2023-01-04T04:36:39.739Z,1014.36
2023-01-04T04:37:39.763Z,1014.38
2023-01-04T04:38:39.794Z,1014.36
2023-01-04T04:39:39.813Z,1014.35
2023-01-04T04:40:39.835Z,1014.39
2023-01-04T04:41:39.954Z,1014.40
2023-01-04T04:42:39.886Z,1014.30
2023-01-04T04:43:39.913Z,1014.35
2023-01-04T04:44:39.945Z,1014.31
2023-01-04T04:45:40.016Z,1014.30
2023-01-04T04:46:39.993Z,1014.35
2023-01-04T04:47:40.014Z,1014.29
2023-01-04T04:48:40.056Z,1014.29
2023-01-04T04:49:40.080Z,1014.28
2023-01-04T04:50:40.099Z,1014.25
2023-01-04T04:51:40.113Z,1014.24
2023-01-04T04:52:40.132Z,1014.21
2023-01-04T04:53:40.162Z,1014.20
2023-01-04T04:54:40.182Z,1014.23
2023-01-04T04:55:40.208Z,1014.24
2023-01-04T04:56:40.231Z,1014.22
2023-01-04T04:57:40.258Z,1014.26
2023-01-04T04:58:40.281Z,1014.21
2023-01-04T04:59:40.306Z,1014.24
2023-01-04T05:00:40.411Z,1014.23
2023-01-04T05:01:40.497Z,1014.26
2023-01-04T05:02:40.506Z,1014.24
2023-01-04T05:03:40.487Z,1014.18
2023-01-04T05:04:40.494Z,1014.21
2023-01-04T05:05:40.463Z,1014.24
2023-01-04T05:06:40.477Z,1014.18
2023-01-04T05:07:40.503Z,1014.20
2023-01-04T05:08:40.530Z,1014.21
2023-01-04T05:09:40.565Z,1014.16
2023-01-04T05:10:40.578Z,1014.19
2023-01-04T05:11:40.613Z,1014.07
2023-01-04T05:12:40.626Z,1014.18
2023-01-04T05:13:40.663Z,1014.15
2023-01-04T05:14:40.678Z,1014.17
2023-01-04T05:15:40.702Z,1014.16
2023-01-04T05:16:40.831Z,1014.14
2023-01-04T05:17:40.755Z,1014.26
2023-01-04T05:18:40.784Z,1014.21
2023-01-04T05:19:40.801Z,1014.24
2023-01-04T05:20:40.854Z,1014.14
2023-01-04T05:21:40.853Z,1014.16
2023-01-04T05:22:40.878Z,1014.05
2023-01-04T05:23:40.902Z,1014.15
2023-01-04T05:24:40.931Z,1014.05
2023-01-04T05:25:40.954Z,1014.05
2023-01-04T05:26:40.975Z,1014.02
2023-01-04T05:27:41.000Z,1013.93
2023-01-04T05:28:41.028Z,1014.04
2023-01-04T05:29:41.050Z,1014.02
2023-01-04T05:30:41.075Z,1013.98
2023-01-04T05:31:41.122Z,1013.94
2023-01-04T05:32:41.124Z,1013.96
2023-01-04T05:33:41.152Z,1013.91
2023-01-04T05:34:41.176Z,1013.90
2023-01-04T05:35:41.207Z,1013.91
2023-01-04T05:36:41.242Z,1013.82
2023-01-04T05:37:41.263Z,1013.85
2023-01-04T05:38:41.283Z,1013.79
2023-01-04T05:39:41.306Z,1013.78
2023-01-04T05:40:41.324Z,1013.69
2023-01-04T05:41:41.351Z,1013.76
2023-01-04T05:42:41.375Z,1013.81
2023-01-04T05:43:41.400Z,1013.78
2023-01-04T05:44:41.439Z,1013.79
2023-01-04T05:45:41.548Z,1013.86
2023-01-04T05:46:41.475Z,1013.81
2023-01-04T05:47:41.502Z,1013.84
2023-01-04T05:48:41.524Z,1013.81
2023-01-04T05:49:41.556Z,1013.85
2023-01-04T05:50:41.586Z,1013.81
2023-01-04T05:51:41.601Z,1013.75
2023-01-04T05:52:41.643Z,1013.72
2023-01-04T05:53:41.657Z,1013.74
2023-01-04T05:55:41.702Z,1013.82
2023-01-04T05:56:41.726Z,1013.76
2023-01-04T05:57:41.861Z,1013.78
2023-01-04T05:58:41.777Z,1013.70
2023-01-04T05:59:42.408Z,1013.67
2023-01-04T06:00:41.824Z,1013.63
2023-01-04T06:01:42.000Z,1013.63
2023-01-04T06:02:42.017Z,1013.65
2023-01-04T06:03:42.107Z,1013.61
2023-01-04T06:04:41.929Z,1013.61
2023-01-04T06:05:41.959Z,1013.57
2023-01-04T06:06:41.983Z,1013.50
2023-01-04T06:07:42.001Z,1013.50
2023-01-04T06:08:42.053Z,1013.52
2023-01-04T06:09:42.053Z,1013.51
2023-01-04T06:10:42.090Z,1013.55
2023-01-04T06:11:42.108Z,1013.55
2023-01-04T06:12:42.132Z,1013.43
2023-01-04T06:13:42.152Z,1013.43
2023-01-04T06:14:42.181Z,1013.44
2023-01-04T06:15:43.311Z,1013.47
2023-01-04T06:16:42.321Z,1013.38
2023-01-04T06:17:42.283Z,1013.42
2023-01-04T06:18:42.290Z,1013.39
2023-01-04T06:19:42.311Z,1013.39
2023-01-04T06:20:42.332Z,1013.41
2023-01-04T06:21:42.357Z,1013.39
2023-01-04T06:22:42.382Z,1013.34
2023-01-04T06:23:42.407Z,1013.32
2023-01-04T06:24:42.446Z,1013.39
2023-01-04T06:25:42.457Z,1013.27
2023-01-04T06:26:42.482Z,1013.20
2023-01-04T06:27:42.508Z,1013.23
2023-01-04T06:28:42.532Z,1013.23
2023-01-04T06:29:42.560Z,1013.23
2023-01-04T06:30:42.611Z,1013.21
2023-01-04T06:31:42.608Z,1013.15
2023-01-04T06:32:42.630Z,1013.27
2023-01-04T06:33:42.672Z,1013.20
2023-01-04T06:34:42.683Z,1013.18
2023-01-04T06:35:42.709Z,1013.16
2023-01-04T06:36:42.732Z,1013.11
2023-01-04T06:37:42.760Z,1013.18
2023-01-04T06:38:42.783Z,1013.16
2023-01-04T06:39:42.810Z,1013.23
2023-01-04T06:40:42.850Z,1013.21
2023-01-04T06:41:42.863Z,1013.30
2023-01-04T06:42:42.885Z,1013.20
2023-01-04T06:43:42.909Z,1013.19
2023-01-04T06:44:42.954Z,1013.18
2023-01-04T06:45:43.023Z,1013.13
2023-01-04T06:46:43.112Z,1013.20
2023-01-04T06:47:43.014Z,1013.14
2023-01-04T06:48:43.038Z,1013.17
2023-01-04T06:49:43.065Z,1013.12
2023-01-04T06:50:43.088Z,1013.10
2023-01-04T06:51:43.118Z,1013.16
2023-01-04T06:52:43.162Z,1013.06
2023-01-04T06:53:43.186Z,1013.02
2023-01-04T06:54:43.195Z,1012.99
2023-01-04T06:55:43.215Z,1013.12
2023-01-04T06:56:43.265Z,1013.05
2023-01-04T06:57:43.268Z,1013.02
2023-01-04T06:58:43.292Z,1012.97
2023-01-04T06:59:43.317Z,1012.96
2023-01-04T07:00:43.341Z,1012.87
2023-01-04T07:01:43.544Z,1012.96
2023-01-04T07:03:13.492Z,1013.02
2023-01-04T07:03:43.419Z,1013.02
2023-01-04T07:04:43.628Z,1012.99
2023-01-04T07:05:43.493Z,1013.05
2023-01-04T07:06:43.494Z,1013.02
2023-01-04T07:07:43.521Z,1013.08
2023-01-04T07:08:43.544Z,1013.08
2023-01-04T07:09:43.583Z,1013.06
2023-01-04T07:10:43.595Z,1013.08
2023-01-04T07:11:43.620Z,1013.11
2023-01-04T07:12:43.672Z,1013.08
2023-01-04T07:13:43.677Z,1013.12
2023-01-04T07:14:43.709Z,1013.15
2023-01-04T07:15:43.830Z,1013.14
2023-01-04T07:16:43.821Z,1013.17
2023-01-04T07:17:43.781Z,1013.23
2023-01-04T07:18:43.808Z,1013.20
2023-01-04T07:19:43.855Z,1013.21
2023-01-04T07:20:43.851Z,1013.17
2023-01-04T07:21:43.876Z,1013.16
2023-01-04T07:22:43.902Z,1013.19
2023-01-04T07:23:43.928Z,1013.15
2023-01-04T07:24:43.961Z,1013.16
2023-01-04T07:25:43.994Z,1013.17
2023-01-04T07:26:44.006Z,1013.12
2023-01-04T07:27:44.034Z,1013.08
2023-01-04T07:28:44.106Z,1013.10
2023-01-04T07:29:44.081Z,1013.05
2023-01-04T07:30:44.163Z,1013.02
2023-01-04T07:31:44.135Z,1012.97
2023-01-04T07:32:44.158Z,1013.00
2023-01-04T07:33:44.185Z,1012.93
2023-01-04T07:34:44.213Z,1012.99
2023-01-04T07:35:44.235Z,1012.97
2023-01-04T07:36:44.264Z,1012.88
2023-01-04T07:37:44.296Z,1012.88
2023-01-04T07:38:44.322Z,1012.90
2023-01-04T07:39:44.338Z,1012.84
2023-01-04T07:40:56.230Z,1012.89
2023-01-04T07:41:44.578Z,1012.87
2023-01-04T07:42:44.426Z,1012.90
2023-01-04T07:43:44.444Z,1012.93
2023-01-04T07:44:44.639Z,1012.95
2023-01-04T07:45:44.493Z,1012.94
2023-01-04T07:46:44.686Z,1012.95
2023-01-04T07:47:44.550Z,1013.01
2023-01-04T07:48:44.574Z,1012.97
2023-01-04T07:49:44.600Z,1012.88
2023-01-04T07:50:44.620Z,1012.83
2023-01-04T07:51:44.647Z,1012.82
2023-01-04T07:52:44.675Z,1012.84
2023-01-04T07:53:44.699Z,1012.91
2023-01-04T07:54:44.726Z,1012.92
2023-01-04T07:55:44.750Z,1012.93
2023-01-04T07:56:44.776Z,1012.89
2023-01-04T07:57:44.804Z,1012.76
2023-01-04T07:58:44.826Z,1012.82
2023-01-04T07:59:44.853Z,1012.84
2023-01-04T08:00:44.897Z,1012.83
2023-01-04T08:01:44.973Z,1012.77
2023-01-04T08:02:45.176Z,1012.79
2023-01-04T08:03:44.955Z,1012.84
2023-01-04T08:04:45.121Z,1012.88
2023-01-04T08:05:45.007Z,1012.88
2023-01-04T08:06:45.033Z,1012.89
2023-01-04T08:07:45.057Z,1012.86
2023-01-04T08:08:45.086Z,1012.76
2023-01-04T08:09:45.129Z,1012.84
2023-01-04T08:10:45.138Z,1012.87
2023-01-04T08:11:45.164Z,1012.87
2023-01-04T08:12:45.187Z,1012.86
2023-01-04T08:13:45.216Z,1012.91
2023-01-04T08:14:45.237Z,1012.93
2023-01-04T08:15:45.313Z,1012.94
2023-01-04T08:16:45.429Z,1012.96
2023-01-04T08:17:45.314Z,1012.94
2023-01-04T08:18:45.347Z,1012.95
2023-01-04T08:19:45.368Z,1012.94
2023-01-04T08:20:45.397Z,1012.94
2023-01-04T08:21:45.421Z,1012.94
2023-01-04T08:22:45.451Z,1012.85
2023-01-04T08:23:45.477Z,1012.88
2023-01-04T08:24:45.528Z,1013.00
2023-01-04T08:25:45.526Z,1012.89
2023-01-04T08:26:45.547Z,1012.85
2023-01-04T08:27:45.575Z,1012.86
2023-01-04T08:28:45.604Z,1012.80
2023-01-04T08:29:45.628Z,1012.85
2023-01-04T08:30:45.718Z,1012.91
2023-01-04T08:31:45.783Z,1012.87
2023-01-04T08:32:45.719Z,1012.89
2023-01-04T08:33:45.731Z,1012.98
2023-01-04T08:34:45.763Z,1012.92
2023-01-04T08:35:45.781Z,1012.87
2023-01-04T08:36:45.808Z,1012.87
2023-01-04T08:37:45.836Z,1012.91
2023-01-04T08:39:01.989Z,1012.87
2023-01-04T08:39:49.256Z,1012.86
2023-01-04T08:41:00.174Z,1012.88
2023-01-04T08:41:57.825Z,1012.86
2023-01-04T08:42:45.962Z,1012.92
2023-01-04T08:43:45.992Z,1012.92
2023-01-04T08:44:46.025Z,1012.90
2023-01-04T08:45:46.044Z,1012.85
2023-01-04T08:46:46.160Z,1012.92
2023-01-04T08:47:46.095Z,1012.89
2023-01-04T08:48:46.146Z,1012.89
2023-01-04T08:49:46.147Z,1012.89
2023-01-04T08:50:46.171Z,1012.87
2023-01-04T08:51:46.200Z,1012.88
2023-01-04T08:52:46.224Z,1012.86
2023-01-04T08:53:46.250Z,1012.80
2023-01-04T08:54:46.276Z,1012.86
2023-01-04T08:55:46.302Z,1012.79
2023-01-04T08:56:46.326Z,1012.77
2023-01-04T08:57:46.354Z,1012.74
2023-01-04T08:58:46.379Z,1012.70
2023-01-04T08:59:46.421Z,1012.71
2023-01-04T09:00:46.435Z,1012.72
2023-01-04T09:01:46.586Z,1012.75
2023-01-04T09:02:46.731Z,1012.71
2023-01-04T09:03:46.509Z,1012.69
2023-01-04T09:04:46.646Z,1012.67
2023-01-04T09:05:46.565Z,1012.61
2023-01-04T09:06:46.588Z,1012.70
2023-01-04T09:07:46.614Z,1012.70
2023-01-04T09:08:46.639Z,1012.69
2023-01-04T09:09:46.675Z,1012.64
2023-01-04T09:10:46.692Z,1012.65
2023-01-04T09:11:46.733Z,1012.58
2023-01-04T09:12:46.746Z,1012.66
2023-01-04T09:13:46.776Z,1012.64
2023-01-04T09:14:46.800Z,1012.59
2023-01-04T09:15:46.885Z,1012.48
2023-01-04T09:16:46.949Z,1012.51
2023-01-04T09:18:20.503Z,1012.51
2023-01-04T09:18:46.905Z,1012.54
2023-01-04T09:19:46.926Z,1012.53
2023-01-04T09:20:47.111Z,1012.61
2023-01-04T09:21:47.045Z,1012.60
2023-01-04T09:22:47.004Z,1012.55
2023-01-04T09:23:47.040Z,1012.61
2023-01-04T09:24:47.056Z,1012.63
2023-01-04T09:25:47.085Z,1012.60
2023-01-04T09:26:47.112Z,1012.61
2023-01-04T09:27:47.136Z,1012.58
2023-01-04T09:28:47.164Z,1012.62
2023-01-04T09:29:47.191Z,1012.61
2023-01-04T09:30:47.212Z,1012.60
2023-01-04T09:31:47.445Z,1012.53
2023-01-04T09:32:47.265Z,1012.59
2023-01-04T09:34:13.407Z,1012.56
2023-01-04T09:34:47.345Z,1012.57
2023-01-04T09:35:47.348Z,1012.50
2023-01-04T09:36:47.422Z,1012.48
2023-01-04T09:37:47.412Z,1012.48
2023-01-04T09:38:47.426Z,1012.53
2023-01-04T09:39:47.579Z,1012.48
2023-01-04T09:40:47.476Z,1012.47
2023-01-04T09:41:47.527Z,1012.52
2023-01-04T09:42:47.535Z,1012.46
2023-01-04T09:43:47.756Z,1012.53
2023-01-04T09:45:47.624Z,1012.52
2023-01-04T09:46:47.692Z,1012.48
2023-01-04T09:47:47.660Z,1012.53
2023-01-04T09:48:47.685Z,1012.62
2023-01-04T09:49:47.715Z,1012.56
2023-01-04T09:50:47.742Z,1012.45
2023-01-04T09:51:47.769Z,1012.42
2023-01-04T09:52:47.819Z,1012.43
2023-01-04T09:53:47.822Z,1012.47
2023-01-04T09:54:47.860Z,1012.47
2023-01-04T09:55:47.873Z,1012.54
2023-01-04T09:56:47.897Z,1012.48
2023-01-04T09:57:48.078Z,1012.45
2023-01-04T09:58:47.952Z,1012.44
2023-01-04T09:59:47.979Z,1012.37
2023-01-04T10:00:48.076Z,1012.41
2023-01-04T10:01:48.245Z,1012.36
2023-01-04T10:02:48.204Z,1012.39
2023-01-04T10:03:48.145Z,1012.40
2023-01-04T10:04:48.117Z,1012.33
2023-01-04T10:05:49.349Z,1012.31
2023-01-04T10:06:48.164Z,1012.30
2023-01-04T10:07:48.189Z,1012.25
2023-01-04T10:08:48.233Z,1012.36
2023-01-04T10:09:48.247Z,1012.32
2023-01-04T10:10:48.271Z,1012.35
2023-01-04T10:11:48.300Z,1012.40
2023-01-04T10:12:48.321Z,1012.38
2023-01-04T10:13:48.358Z,1012.39
2023-01-04T10:14:48.374Z,1012.40
2023-01-04T10:15:48.505Z,1012.33
2023-01-04T10:21:12.864Z,1012.39
2023-01-04T10:21:48.632Z,1012.40
2023-01-04T10:22:48.586Z,1012.37
2023-01-04T10:23:48.613Z,1012.33
2023-01-04T10:24:48.657Z,1012.34
2023-01-04T10:25:48.672Z,1012.33
2023-01-04T10:26:48.708Z,1012.35
2023-01-04T10:27:48.720Z,1012.33
2023-01-04T10:28:48.748Z,1012.30
2023-01-04T10:29:48.772Z,1012.33
2023-01-04T10:30:48.798Z,1012.32
2023-01-04T10:31:48.880Z,1012.26
2023-01-04T10:32:48.852Z,1012.26
2023-01-04T10:33:48.880Z,1012.29
2023-01-04T10:34:48.955Z,1012.21
2023-01-04T10:35:48.932Z,1012.29
2023-01-04T10:36:48.957Z,1012.31
2023-01-04T10:37:48.987Z,1012.27
2023-01-04T10:38:49.012Z,1012.26
2023-01-04T10:39:49.040Z,1012.15
2023-01-04T10:40:49.280Z,1012.21
2023-01-04T10:41:49.091Z,1012.21
2023-01-04T10:42:49.121Z,1012.14
2023-01-04T10:44:11.320Z,1012.15
2023-01-04T10:44:49.172Z,1012.17
2023-01-04T10:45:49.201Z,1012.13
2023-01-04T10:46:49.326Z,1012.11
2023-01-04T10:47:49.252Z,1012.13
2023-01-04T10:48:49.277Z,1012.10
2023-01-04T10:49:49.315Z,1012.13
2023-01-04T10:50:49.332Z,1012.11
2023-01-04T10:51:49.357Z,1012.10
2023-01-04T10:52:49.384Z,1012.11
2023-01-04T10:53:49.409Z,1012.15
2023-01-04T10:54:49.438Z,1012.15
2023-01-04T10:56:24.340Z,1012.19
2023-01-04T10:56:49.507Z,1012.10
2023-01-04T10:57:49.515Z,1012.10
2023-01-04T10:58:49.543Z,1012.07
2023-01-04T10:59:49.569Z,1012.12
2023-01-04T11:00:49.959Z,1012.05
2023-01-04T11:01:49.914Z,1012.08
2023-01-04T11:02:49.915Z,1012.06
2023-01-04T11:03:49.717Z,1012.05
2023-01-04T11:04:49.698Z,1012.07
2023-01-04T11:05:49.725Z,1012.08
2023-01-04T11:06:49.767Z,1012.03
2023-01-04T11:07:49.787Z,1012.00
2023-01-04T11:08:49.805Z,1011.99
2023-01-04T11:09:49.831Z,1012.00
2023-01-04T11:10:49.858Z,1011.91
2023-01-04T11:11:49.887Z,1011.92
2023-01-04T11:12:49.997Z,1011.97
2023-01-04T11:13:49.935Z,1011.93
2023-01-04T11:14:49.968Z,1011.89
2023-01-04T11:15:49.992Z,1011.83
2023-01-04T11:16:50.147Z,1011.83
2023-01-04T11:17:50.038Z,1011.80
2023-01-04T11:18:50.090Z,1011.85
2023-01-04T11:19:50.104Z,1011.85
2023-01-04T11:20:50.125Z,1011.83
2023-01-04T11:21:50.143Z,1011.82
2023-01-04T11:22:50.296Z,1011.82
2023-01-04T11:23:50.196Z,1011.82
2023-01-04T11:25:32.677Z,1011.80
2023-01-04T11:25:55.510Z,1011.83
2023-01-04T11:26:50.276Z,1011.80
2023-01-04T11:27:50.302Z,1011.82
2023-01-04T11:28:50.349Z,1011.84
2023-01-04T11:29:50.354Z,1011.83
2023-01-04T11:30:50.379Z,1011.81
2023-01-04T11:31:50.481Z,1011.68
2023-01-04T11:32:50.433Z,1011.70
2023-01-04T11:33:50.456Z,1011.72
2023-01-04T11:34:50.486Z,1011.73
2023-01-04T11:35:50.511Z,1011.72
2023-01-04T11:36:50.534Z,1011.66
2023-01-04T11:37:50.560Z,1011.65
2023-01-04T11:38:50.637Z,1011.61
2023-01-04T11:39:50.610Z,1011.66
2023-01-04T11:40:50.639Z,1011.67
2023-01-04T11:41:50.661Z,1011.59
2023-01-04T11:42:50.700Z,1011.57
2023-01-04T11:43:50.713Z,1011.55
2023-01-04T11:44:50.877Z,1011.57
2023-01-04T11:45:50.872Z,1011.54
2023-01-04T11:46:50.812Z,1011.54
2023-01-04T11:47:50.825Z,1011.60
2023-01-04T11:48:50.855Z,1011.57
2023-01-04T11:49:50.871Z,1011.49
2023-01-04T11:50:50.905Z,1011.45
2023-01-04T11:51:50.928Z,1011.44
2023-01-04T11:52:50.949Z,1011.43
2023-01-04T11:53:50.975Z,1011.43
2023-01-04T11:54:51.004Z,1011.50
2023-01-04T11:55:51.032Z,1011.46
2023-01-04T11:56:51.054Z,1011.38
2023-01-04T11:57:51.080Z,1011.39
2023-01-04T11:58:51.107Z,1011.41
2023-01-04T11:59:51.132Z,1011.45
2023-01-04T12:00:51.190Z,1011.34
2023-01-04T12:01:51.262Z,1011.42
2023-01-04T12:03:01.204Z,1011.40
2023-01-04T12:03:51.257Z,1011.38
2023-01-04T12:04:51.268Z,1011.39
2023-01-04T12:05:51.292Z,1011.39
2023-01-04T12:06:51.322Z,1011.37
2023-01-04T12:07:51.341Z,1011.34
2023-01-04T12:08:51.370Z,1011.31
2023-01-04T12:09:51.396Z,1011.28
2023-01-04T12:10:51.423Z,1011.37
2023-01-04T12:11:51.448Z,1011.36
2023-01-04T12:12:51.475Z,1011.36
2023-01-04T12:13:51.498Z,1011.39